Aeroporto :
LOGIN :

Iscrizione | Disclaimer

   EN    FR    IT 

 










Sommario :    VFR   VFR Marginale   IFR   IFR Intensivo   IFR Molto Intensivo
Visibilità : 
Base nubi : 
>= 8 km
>= 3000ft
5 / 8 km
1000 / 3000 ft
1500m / 5 km
500 / 1000 ft
800 / 1500m
200 / 500 ft
< 800m
< 200 ft
Simboli :   Temporali  Nebbia  Neve Forte  Precipitazioni Forti  Vento > 20 kt
SIGMETs :   Varie  Temporali  Ghiacco  Turbolenza  Onda orograficha  Ceneri Vulcaniche






- Altitudine del aeroporto : 3 ft
- Codice IATA : LWR


EHLW - Leuuwarden Air Base

ULTIMO METAR :
  • 301725Z AUTO 01014KT 9999 FEW019 SCT035 06/02 Q1027 BLU

METARs OBSOLETI :
  • 301717Z AUTO 01011KT 9999 -UP SCT019 BKN035 OVC170 06/03 Q1027 WHT
  • 301655Z AUTO 36013KT 9999 SCT017 BKN021 BKN026 07/03 Q1027 WHT
  • 301635Z AUTO 36015KT 9999 FEW018 SCT024 BKN200 07/03 Q1027 WHT
  • 301627Z AUTO 36014KT 320V020 9999 FEW019 SCT200 07/03 Q1027 BLU
  • 301610Z AUTO 36013KT 320V020 9999 FEW018 SCT021 07/03 Q1027 WHT
  • 301557Z AUTO 36014KT 320V020 9999 FEW016 SCT025 07/03 Q1027 BLU

TAF TAF EHLW
Valido dal 30 a 13 ore il 31 a 01 ore UTC


301220Z 3013/3101 35010KT 9999 SCT017
PROB40
TEMPO 3013/3016 36010G22KT FEW016 SCT018CB BKN022
BECMG 3022/3101 06005KT NSC



MetMap, La meteo Aeronautica in un colpo d'occhio ! - Copyright ORBIFLY Dicembre 2007 - Disclaimer

ORBIFLY MET'MAP TEAM :

Programmazione e sviluppo : Alexandra Zaïnal
Concezione : Baudouin d'Aumeries
Aiuto per la programmazione : Marc-Olivier Méhu
Supporto tecnico e logistico : Manuel Goepfert
Aiuto per la traduzione : Arnaldo La Scala

Contatto : metmap@orbifly.com




FONTI E CREDITI :

   NOAA